• Join FlightAware (Why Join?)
  • Login
  • US Flag 
08:41PM EDT


 

Airport Tracker/Info


-or-


 

Live Flight TrackerFlight Track Log ✈ N165AL ✈ 20-Apr-2013 ✈ KMSO - KBFI

Flight Track Log - Related Links

Times and Time Zones

All times are in EDT time to prevent confusion due to time zone crossing. See the N165AL flight status page for this flight to view local times or setup timezone preferences in your user account.

Time Position Orientation Groundspeed Altitude Reporting Facility
EDT Latitude Longitude Course Direction KTS MPH feet Rate Location/Type
08:27AM 46.9369 -114.1283 311° West 194 223 5,600  Level Salt Lake Center
08:28AM 46.9758 -114.1950 311° West 215 247 9,900 3,960 Climbing Salt Lake Center
08:29AM 47.0197 -114.2731 310° West 245 282 13,700 3,420 Climbing Salt Lake Center
08:30AM 47.0761 -114.3647 312° West 304 350 16,800 2,820 Climbing Salt Lake Center
08:31AM 47.1211 -114.4819 299° West 336 387 19,500 2,580 Climbing Salt Lake Center
08:32AM 47.1556 -114.6006 293° West 356 410 22,000 2,580 Climbing Salt Lake Center
08:33AM 46.9242 -114.1125 311° West  Level FlightAware Approximate
08:33AM 47.1878 -114.7097 294° West 359 413 24,200  Level Seattle Center
08:34AM 47.2278 -114.8481 293° West 365 420 27,000 2,700 Climbing Seattle Center
08:35AM 47.2683 -114.9856 294° West 367 422 29,700 2,700 Climbing Seattle Center
08:36AM 47.2892 -115.1286 282° West 358 412 32,400 2,340 Climbing Seattle Center
08:37AM 47.3064 -115.2739 280° West 358 412 34,500 1,860 Climbing Seattle Center
08:38AM 47.3244 -115.4222 280° West 366 421 36,200 1,500 Climbing Seattle Center
08:39AM 47.3425 -115.5742 280° West 373 429 37,500 1,200 Climbing Seattle Center
08:40AM 47.3597 -115.7253 280° West 375 432 38,600 960 Climbing Seattle Center
08:41AM 47.3775 -115.8806 280° West 366 421 39,500 660 Climbing Seattle Center
08:42AM 47.3933 -116.0269 279° West 362 417 40,000 240 Climbing Seattle Center
08:43AM 47.4100 -116.1781 279° West 372 428 40,000  Level Seattle Center
08:44AM 47.4278 -116.3350 280° West 386 444 40,000  Level Seattle Center
08:45AM 47.4450 -116.4925 279° West 390 449 40,000  Level Seattle Center
08:46AM 47.4606 -116.6428 279° West 392 451 40,000  Level Seattle Center
08:47AM 47.4778 -116.7997 279° West 389 448 40,000  Level Seattle Center
08:48AM 47.4944 -116.9569 279° West 389 448 40,000  Level Seattle Center
08:49AM 47.5108 -117.1133 279° West 386 444 40,000  Level Seattle Center
08:50AM 47.5283 -117.2933 278° West 383 441 40,000  Level Seattle Center
08:51AM 47.5447 -117.4464 279° West 385 443 40,000  Level Seattle Center
08:52AM 47.5603 -117.6033 278° West 386 444 40,000  Level Seattle Center
08:53AM 47.5753 -117.7589 278° West 383 441 40,000  Level Seattle Center
08:54AM 47.5903 -117.9172 278° West 388 447 40,000  Level Seattle Center
08:55AM 47.6047 -118.0744 278° West 387 445 40,000  Level Seattle Center
08:56AM 47.6197 -118.2319 278° West 386 444 40,000  Level Seattle Center
08:57AM 47.6344 -118.3889 278° West 385 443 40,000  Level Seattle Center
08:58AM 47.6483 -118.5475 277° West 389 448 40,000  Level Seattle Center
08:59AM 47.6631 -118.7069 278° West 391 450 40,000  Level Seattle Center
09:00AM 47.6764 -118.8661 277° West 391 450 40,000  Level Seattle Center
09:01AM 47.6892 -119.0258 277° West 391 450 40,000  Level Seattle Center
09:02AM 47.7022 -119.1872 277° West 391 450 40,000  Level Seattle Center
09:03AM 47.7167 -119.3453 278° West 392 451 40,000  Level Seattle Center
09:04AM 47.7308 -119.5033 278° West 389 448 40,000  Level Seattle Center
09:05AM 47.7425 -119.6614 276° West 387 445 40,000  Level Seattle Center
09:06AM 47.7550 -119.8175 277° West 384 442 40,000 -120 Level Seattle Center
09:07AM 47.7664 -119.9706 276° West 377 434 39,800 -1,380 Descending Seattle Center
09:08AM 47.7767 -120.1258 276° West 378 435 37,300 -2,700 Descending Seattle Center
09:09AM 47.7903 -120.2775 278° West 374 430 34,400 -2,940 Descending Seattle Center
09:10AM 47.8000 -120.4217 276° West 357 411 31,500 -2,880 Descending Seattle Center
09:11AM 47.8117 -120.5628 277° West 349 402 28,600 -2,880 Descending Seattle Center
09:12AM 47.8203 -120.7072 275° West 351 404 25,700 -2,820 Descending Seattle Center
09:13AM 47.8317 -120.8531 277° West 354 407 23,000 -3,000 Descending Seattle Center
09:14AM 47.8383 -120.9761 275° West 348 400 20,500 -2,880 Descending Seattle Center
09:14AM 47.8403 -120.9919 280° West 345 397 20,100 -2,940 Descending Seattle Center
09:15AM 47.8467 -121.0578 278° West 335 386 18,700 -2,640 Descending Seattle Center
09:15AM 47.8497 -121.1233 274° West 326 375 17,500 -2,520 Descending Seattle Center
09:16AM 47.8536 -121.1864 275° West 307 353 16,200 -2,580 Descending Seattle Center
09:16AM 47.8569 -121.2464 275° West 307 353 14,900 -2,160 Descending Seattle Center
09:17AM 47.8633 -121.3169 278° West 292 336 13,800 -1,800 Descending Seattle Center
09:17AM 47.8658 -121.3639 275° West 290 334 13,100 -1,560 Descending Seattle Center
09:18AM 47.8689 -121.4233 274° West 280 322 12,400 -1,500 Descending Seattle Center
09:18AM 47.8731 -121.4997 275° West 278 320 11,600 -1,140 Descending Seattle Center
09:19AM 47.8764 -121.5383 277° West 277 319 11,300 -600 Descending Seattle Center
09:19AM 47.8806 -121.6086 275° West 269 310 11,000 -480 Descending Seattle Center
09:20AM 47.8742 -121.6589 259° West 260 299 10,800 -1,020 Descending Seattle Center
09:20AM 47.8658 -121.7117 257° West 260 299 10,000 -1,500 Descending Seattle Center
09:21AM 47.8617 -121.7489 261° West 265 305 9,500 -1,380 Descending Seattle Center
09:21AM 47.8497 -121.8192 256° West 268 308 8,600 -1,500 Descending Seattle Center
09:22AM 47.8425 -121.8656 257° West 266 306 8,000 -1,440 Descending Seattle Center
09:22AM 47.8339 -121.9219 257° West 259 298 7,200 -1,380 Descending Seattle Center
09:23AM 47.8264 -121.9675 256° West 257 296 6,600 -1,440 Descending Seattle Center
09:23AM 47.8192 -122.0250 259° West 257 296 5,800 -1,620 Descending Seattle Center
09:24AM 47.8133 -122.0739 260° West 258 297 5,000 -1,680 Descending Seattle Center
09:24AM 47.8047 -122.1358 258° West 258 297 4,100 -1,560 Descending Seattle Center
09:25AM 47.8011 -122.1667 260° West 259 298 3,600 -1,140 Descending Seattle Center
09:25AM 47.7903 -122.2406 258° West 260 299 3,000 -600 Descending Seattle Center
09:26AM 47.7861 -122.2739 259° West 258 297 3,000 -300 Level Seattle Center
09:26AM 47.7703 -122.3389 250° West 249 287 2,700 -600 Descending Seattle Center
09:27AM 47.7608 -122.3672 244° Southwest 258 297 2,400 -540 Descending Seattle Center
09:27AM 47.7294 -122.4292 233° Southwest 247 284 2,200 -240 Descending Seattle Center
09:28AM 47.7147 -122.4319 187° South 229 264 2,200  Level Seattle Center
09:28AM 47.6692 -122.4247 174° South 219 252 2,200  Level Seattle Center
09:29AM 47.6556 -122.4089 142° Southeast 207 238 2,200 -120 Level Seattle Center
09:29AM 47.6222 -122.3814 151° Southeast 201 231 2,100 -480 Descending Seattle Center
09:30AM 47.6133 -122.3731 148° Southeast 189 217 1,800 -1,140 Descending Seattle Center
09:30AM 47.5789 -122.3447 151° Southeast 184 212 1,000 -1,020 Descending Seattle Center
09:31AM 47.5717 -122.3400 156° South 167 192 800 -720 Descending Seattle Center
09:31AM 47.5522 -122.3217 148° Southeast 136 157 300 -420 Descending Seattle Center
09:32AM 47.5169 -122.2922 151° Southeast 132 152 100 -240 Descending Seattle Center